createdAt,value
2019-01-12T00:02:23.170Z,81.57
2019-01-12T00:04:52.460Z,81.64
2019-01-12T00:07:21.833Z,81.67
2019-01-12T00:09:51.133Z,81.57
2019-01-12T00:12:20.406Z,81.59
2019-01-12T00:14:49.689Z,81.56
2019-01-12T00:17:18.979Z,81.41
2019-01-12T00:19:50.060Z,81.46
2019-01-12T00:22:19.348Z,81.22
2019-01-12T00:24:48.625Z,81.51
2019-01-12T00:27:18.021Z,81.65
2019-01-12T00:29:47.314Z,81.72
2019-01-12T00:32:17.720Z,81.91
2019-01-12T00:34:47.047Z,82.03
2019-01-12T00:37:16.330Z,81.96
2019-01-12T00:39:45.647Z,82.08
2019-01-12T00:42:14.954Z,82.03
2019-01-12T00:44:44.294Z,82.12
2019-01-12T00:47:13.570Z,82.20
2019-01-12T00:49:42.876Z,82.36
2019-01-12T00:52:12.149Z,82.25
2019-01-12T00:54:41.443Z,82.06
2019-01-12T00:57:10.750Z,82.10
2019-01-12T00:59:40.060Z,82.43
2019-01-12T01:02:09.388Z,82.35
2019-01-12T01:04:38.690Z,82.38
2019-01-12T01:07:07.997Z,82.18
2019-01-12T01:09:37.283Z,82.16
2019-01-12T01:12:06.576Z,82.21
2019-01-12T01:14:35.852Z,82.18
2019-01-12T01:17:05.151Z,82.15
2019-01-12T01:19:34.429Z,82.38
2019-01-12T01:22:04.835Z,82.41
2019-01-12T01:24:34.126Z,82.32
2019-01-12T01:27:03.413Z,82.32
2019-01-12T01:29:32.708Z,82.34
2019-01-12T01:32:01.982Z,82.40
2019-01-12T01:34:31.268Z,82.43
2019-01-12T01:37:00.544Z,82.32
2019-01-12T01:39:29.852Z,82.24
2019-01-12T01:41:59.109Z,82.16
2019-01-12T01:44:28.437Z,82.39
2019-01-12T01:46:57.711Z,82.29
2019-01-12T01:49:27.105Z,82.10
2019-01-12T01:51:56.389Z,82.19
2019-01-12T01:54:25.678Z,82.20
2019-01-12T01:56:55.090Z,81.93
2019-01-12T01:59:24.349Z,82.04
2019-01-12T02:01:53.642Z,81.86
2019-01-12T02:04:22.984Z,82.27
2019-01-12T02:06:52.304Z,82.20
2019-01-12T02:09:21.611Z,82.20
2019-01-12T02:11:50.941Z,82.14
2019-01-12T02:14:20.224Z,82.08
2019-01-12T02:16:49.493Z,81.94
2019-01-12T02:19:18.776Z,81.98
2019-01-12T02:21:48.050Z,81.98
2019-01-12T02:24:17.379Z,81.99
2019-01-12T02:26:46.658Z,82.06
2019-01-12T02:29:15.940Z,82.12
2019-01-12T02:31:45.203Z,82.49
2019-01-12T02:34:14.498Z,81.98
2019-01-12T02:36:43.768Z,82.20
2019-01-12T02:39:14.350Z,82.08
2019-01-12T02:41:43.626Z,82.00
2019-01-12T02:44:12.905Z,82.09
2019-01-12T02:46:42.207Z,81.84
2019-01-12T02:49:11.483Z,81.93
2019-01-12T02:51:41.772Z,81.90
2019-01-12T02:54:11.038Z,82.29
2019-01-12T02:56:40.333Z,82.21
2019-01-12T02:59:09.630Z,82.19
2019-01-12T03:01:38.908Z,82.41
2019-01-12T03:04:08.202Z,82.22
2019-01-12T03:06:37.600Z,82.30
2019-01-12T03:09:09.010Z,82.48
2019-01-12T03:11:38.282Z,82.46
2019-01-12T03:14:07.591Z,82.47
2019-01-12T03:16:36.884Z,82.51
2019-01-12T03:19:06.200Z,82.74
2019-01-12T03:21:35.487Z,82.94
2019-01-12T03:24:04.875Z,83.11
2019-01-12T03:26:34.175Z,82.97
2019-01-12T03:29:03.458Z,83.01
2019-01-12T03:31:32.755Z,82.83
2019-01-12T03:34:02.193Z,82.80
2019-01-12T03:36:31.517Z,82.82
2019-01-12T03:39:00.912Z,82.88
2019-01-12T03:41:30.235Z,83.05
2019-01-12T03:43:59.522Z,83.03
2019-01-12T03:46:28.793Z,83.22
2019-01-12T03:48:58.129Z,83.39
2019-01-12T03:51:27.392Z,83.45
2019-01-12T03:53:56.953Z,83.14
2019-01-12T03:56:26.422Z,83.04
2019-01-12T03:58:55.733Z,83.06
2019-01-12T04:01:25.009Z,83.11
2019-01-12T04:03:54.428Z,82.98
2019-01-12T04:06:23.704Z,82.84
2019-01-12T04:08:52.997Z,82.82
2019-01-12T04:11:22.270Z,82.64
2019-01-12T04:13:51.624Z,82.70
2019-01-12T04:16:21.995Z,82.64
2019-01-12T04:18:51.877Z,82.60
2019-01-12T04:21:22.192Z,82.65
2019-01-12T04:23:51.472Z,82.71
2019-01-12T04:26:20.770Z,82.61
2019-01-12T04:28:50.056Z,82.67
2019-01-12T04:31:21.161Z,82.71
2019-01-12T04:33:50.427Z,82.64
2019-01-12T04:36:19.707Z,82.51
2019-01-12T04:38:48.976Z,82.44
2019-01-12T04:41:18.278Z,82.80
2019-01-12T04:43:47.557Z,82.77
2019-01-12T04:46:16.824Z,82.46
2019-01-12T04:48:46.133Z,82.62
2019-01-12T04:51:15.403Z,82.49
2019-01-12T04:53:44.707Z,82.60
2019-01-12T04:56:13.974Z,82.53
2019-01-12T04:58:43.304Z,82.56
2019-01-12T05:01:12.597Z,82.59
2019-01-12T05:03:42.927Z,82.63
2019-01-12T05:06:12.336Z,82.35
2019-01-12T05:08:41.627Z,82.41
2019-01-12T05:11:10.965Z,82.47
2019-01-12T05:13:40.233Z,82.11
2019-01-12T05:16:09.551Z,82.17
2019-01-12T05:18:38.939Z,82.08
2019-01-12T05:21:08.231Z,82.06
2019-01-12T05:23:37.508Z,81.74
2019-01-12T05:26:06.877Z,81.98
2019-01-12T05:28:36.184Z,81.76
2019-01-12T05:31:05.595Z,81.56
2019-01-12T05:33:34.869Z,81.94
2019-01-12T05:36:04.157Z,81.69
2019-01-12T05:38:33.459Z,81.82
2019-01-12T05:41:02.737Z,81.78
2019-01-12T05:43:32.044Z,81.80
2019-01-12T05:46:01.329Z,81.83
2019-01-12T05:48:32.423Z,81.81
2019-01-12T05:51:01.707Z,81.88
2019-01-12T05:53:31.008Z,82.02
2019-01-12T05:56:00.306Z,82.62
2019-01-12T05:58:29.672Z,82.41
2019-01-12T06:00:58.973Z,82.34
2019-01-12T06:03:28.252Z,82.46
2019-01-12T06:05:57.614Z,82.63
2019-01-12T06:08:27.981Z,82.46
2019-01-12T06:10:57.263Z,82.66
2019-01-12T06:13:26.560Z,82.31
2019-01-12T06:15:55.874Z,82.32
2019-01-12T06:18:25.163Z,82.28
2019-01-12T06:20:55.453Z,82.00
2019-01-12T06:23:24.746Z,82.12
2019-01-12T06:25:54.026Z,82.11
2019-01-12T06:28:24.526Z,82.08
2019-01-12T06:30:53.866Z,81.93
2019-01-12T06:33:23.147Z,81.94
2019-01-12T06:35:54.231Z,81.91
2019-01-12T06:38:23.524Z,81.79
2019-01-12T06:40:52.834Z,82.07
2019-01-12T06:43:22.099Z,81.94
2019-01-12T06:45:51.372Z,82.00
2019-01-12T06:48:20.667Z,82.05
2019-01-12T06:50:49.931Z,81.95
2019-01-12T06:53:19.226Z,81.95
2019-01-12T06:55:48.576Z,81.93
2019-01-12T06:58:17.830Z,81.88
2019-01-12T07:00:47.173Z,81.84
2019-01-12T07:03:16.425Z,81.95
2019-01-12T07:05:45.731Z,81.92
2019-01-12T07:08:15.127Z,82.06
2019-01-12T07:10:44.398Z,81.86
2019-01-12T07:13:13.800Z,81.86
2019-01-12T07:15:43.588Z,81.96
2019-01-12T07:18:14.957Z,82.10
2019-01-12T07:20:47.100Z,81.96
2019-01-12T07:23:18.463Z,81.72
2019-01-12T07:25:50.752Z,81.82
2019-01-12T07:28:23.941Z,81.85
2019-01-12T07:30:53.238Z,82.05
2019-01-12T07:33:22.509Z,82.28
2019-01-12T07:35:51.869Z,82.40
2019-01-12T07:38:21.135Z,82.25
2019-01-12T07:40:50.416Z,82.33
2019-01-12T07:43:19.714Z,82.29
2019-01-12T07:45:49.941Z,82.24
2019-01-12T07:48:19.236Z,82.23
2019-01-12T07:50:48.528Z,82.22
2019-01-12T07:53:17.805Z,82.16
2019-01-12T07:55:47.093Z,82.12
2019-01-12T07:58:16.415Z,82.09
2019-01-12T08:00:45.700Z,82.15
2019-01-12T08:03:15.015Z,82.11
2019-01-12T08:05:46.148Z,82.06
2019-01-12T08:08:15.401Z,82.08
2019-01-12T08:10:44.718Z,81.98
2019-01-12T08:13:13.993Z,81.62
2019-01-12T08:15:43.360Z,81.87
2019-01-12T08:18:12.632Z,81.67
2019-01-12T08:20:41.904Z,81.59
2019-01-12T08:23:11.723Z,81.80
2019-01-12T08:25:41.018Z,81.76
2019-01-12T08:28:10.312Z,81.88
2019-01-12T08:30:41.030Z,81.63
2019-01-12T08:33:10.293Z,81.63
2019-01-12T08:35:39.565Z,81.57
2019-01-12T08:38:11.859Z,81.40
2019-01-12T08:40:41.220Z,81.63
2019-01-12T08:43:10.521Z,81.60
2019-01-12T08:45:39.817Z,81.42
2019-01-12T08:48:09.154Z,81.59
2019-01-12T08:50:38.424Z,81.48
2019-01-12T08:53:07.791Z,81.39
2019-01-12T08:55:37.910Z,81.60
2019-01-12T08:58:07.241Z,81.42
2019-01-12T09:00:36.609Z,81.21
2019-01-12T09:03:05.929Z,81.34
2019-01-12T09:05:36.671Z,81.30
2019-01-12T09:08:06.472Z,81.19
2019-01-12T09:10:35.788Z,80.90
2019-01-12T09:13:07.314Z,81.06
2019-01-12T09:15:36.703Z,81.28
2019-01-12T09:18:05.972Z,81.28
2019-01-12T09:20:35.283Z,81.59
2019-01-12T09:23:05.655Z,81.56
2019-01-12T09:25:35.192Z,81.18
2019-01-12T09:28:04.576Z,81.45
2019-01-12T09:30:33.910Z,81.79
2019-01-12T09:33:03.200Z,81.97
2019-01-12T09:35:32.515Z,81.67
2019-01-12T09:38:01.780Z,81.75
2019-01-12T09:40:33.342Z,81.63
2019-01-12T09:43:02.788Z,81.74
2019-01-12T09:45:32.078Z,81.88
2019-01-12T09:48:02.566Z,81.54
2019-01-12T09:50:31.834Z,81.48
2019-01-12T09:53:01.197Z,81.26
2019-01-12T09:55:30.483Z,81.43
2019-01-12T09:57:59.791Z,81.27
2019-01-12T10:00:30.932Z,81.21
2019-01-12T10:03:00.241Z,81.12
2019-01-12T10:05:29.576Z,81.14
2019-01-12T10:07:58.839Z,81.03
2019-01-12T10:10:28.211Z,80.96
2019-01-12T10:12:59.579Z,80.82
2019-01-12T10:15:28.903Z,80.84
2019-01-12T10:17:59.497Z,80.43
2019-01-12T10:20:30.463Z,80.47
2019-01-12T10:23:00.934Z,80.47
2019-01-12T10:25:30.672Z,80.32
2019-01-12T10:28:00.573Z,80.35
2019-01-12T10:30:32.255Z,80.24
2019-01-12T10:33:02.610Z,80.37
2019-01-12T10:35:32.591Z,80.27
2019-01-12T10:38:02.738Z,79.94
2019-01-12T10:40:33.801Z,80.13
2019-01-12T10:43:03.845Z,79.99
2019-01-12T10:45:35.672Z,79.96
2019-01-12T10:48:05.730Z,79.92
2019-01-12T10:50:35.999Z,79.92
2019-01-12T10:53:06.639Z,80.16
2019-01-12T10:55:38.893Z,79.79
2019-01-12T10:58:11.209Z,79.71
2019-01-12T11:00:44.534Z,79.83
2019-01-12T11:03:16.312Z,79.50
2019-01-12T11:05:46.156Z,79.73
2019-01-12T11:08:16.527Z,79.47
2019-01-12T11:10:46.883Z,79.22
2019-01-12T11:13:16.114Z,79.44
2019-01-12T11:15:45.407Z,79.33
2019-01-12T11:18:14.696Z,79.41
2019-01-12T11:20:44.287Z,79.44
2019-01-12T11:23:14.666Z,79.27
2019-01-12T11:25:45.431Z,79.18
2019-01-12T11:28:14.735Z,79.27
2019-01-12T11:30:44.202Z,79.04
2019-01-12T11:33:13.602Z,79.12
2019-01-12T11:35:42.925Z,79.14
2019-01-12T11:38:12.223Z,78.89
2019-01-12T11:40:41.511Z,79.03
2019-01-12T11:43:10.784Z,78.90
2019-01-12T11:45:40.046Z,79.09
2019-01-12T11:48:09.373Z,79.05
2019-01-12T11:50:38.735Z,79.28
2019-01-12T11:53:08.406Z,79.18
2019-01-12T11:55:37.684Z,79.18
2019-01-12T11:58:06.974Z,79.09
2019-01-12T12:00:36.318Z,78.86
2019-01-12T12:03:06.677Z,78.89
2019-01-12T12:05:35.988Z,79.06
2019-01-12T12:08:05.634Z,79.44
2019-01-12T12:10:34.980Z,79.72
2019-01-12T12:13:04.561Z,79.58
2019-01-12T12:15:35.493Z,79.83
2019-01-12T12:18:05.053Z,79.82
2019-01-12T12:20:34.341Z,79.63
2019-01-12T12:23:04.728Z,79.26
2019-01-12T12:25:34.683Z,79.44
2019-01-12T12:28:04.558Z,79.32
2019-01-12T12:30:34.482Z,79.04
2019-01-12T12:33:04.688Z,79.37
2019-01-12T12:35:37.935Z,79.76
2019-01-12T12:38:06.044Z,80.02
2019-01-12T12:40:35.330Z,80.30
2019-01-12T12:43:04.805Z,80.25
2019-01-12T12:45:35.928Z,80.21
2019-01-12T12:48:06.201Z,80.38
2019-01-12T12:50:36.120Z,80.30
2019-01-12T12:53:05.775Z,79.90
2019-01-12T12:55:35.320Z,80.11
2019-01-12T12:58:05.177Z,79.93
2019-01-12T13:00:35.222Z,79.77
2019-01-12T13:03:05.369Z,79.66
2019-01-12T13:05:39.107Z,79.34
2019-01-12T13:08:08.769Z,79.17
2019-01-12T13:10:38.099Z,79.13
2019-01-12T13:13:07.557Z,78.83
2019-01-12T13:15:36.999Z,78.91
2019-01-12T13:18:08.104Z,78.83
2019-01-12T13:20:37.479Z,78.46
2019-01-12T13:23:06.766Z,78.48
2019-01-12T13:25:36.599Z,78.30
2019-01-12T13:28:06.100Z,78.33
2019-01-12T13:30:35.527Z,78.09
2019-01-12T13:33:04.826Z,78.01
2019-01-12T13:35:34.138Z,78.14
2019-01-12T13:38:03.519Z,78.04
2019-01-12T13:40:32.821Z,78.07
2019-01-12T13:43:02.149Z,77.79
2019-01-12T13:45:31.428Z,77.35
2019-01-12T13:48:00.984Z,77.28
2019-01-12T13:50:31.658Z,77.57
2019-01-12T13:53:00.965Z,77.35
2019-01-12T13:55:30.257Z,77.41
2019-01-12T13:57:59.566Z,77.50
2019-01-12T14:00:36.594Z,76.83
2019-01-12T14:03:07.609Z,77.05
2019-01-12T14:05:37.341Z,77.66
2019-01-12T14:08:07.877Z,77.99
2019-01-12T14:10:37.541Z,77.70
2019-01-12T14:13:07.835Z,77.51
2019-01-12T14:15:47.608Z,77.38
2019-01-12T14:18:22.535Z,77.17
2019-01-12T14:20:48.168Z,77.09
2019-01-12T14:23:17.543Z,77.22
2019-01-12T14:25:46.827Z,77.04
2019-01-12T14:28:17.302Z,76.90
2019-01-12T14:30:46.596Z,76.96
2019-01-12T14:33:16.278Z,76.80
2019-01-12T14:35:45.869Z,76.71
2019-01-12T14:38:15.144Z,76.53
2019-01-12T14:40:44.458Z,76.40
2019-01-12T14:43:13.803Z,76.41
2019-01-12T14:45:43.201Z,76.35
2019-01-12T14:48:13.528Z,76.29
2019-01-12T14:50:42.969Z,76.20
2019-01-12T14:53:12.442Z,76.03
2019-01-12T14:55:41.721Z,76.37
2019-01-12T14:58:11.313Z,76.55
2019-01-12T15:00:40.603Z,76.23
2019-01-12T15:03:11.032Z,76.40
2019-01-12T15:05:40.309Z,76.34
2019-01-12T15:08:11.018Z,76.31
2019-01-12T15:10:42.110Z,76.34
2019-01-12T15:13:11.587Z,76.25
2019-01-12T15:15:41.216Z,76.55
2019-01-12T15:18:12.332Z,76.56
2019-01-12T15:20:41.800Z,76.68
2019-01-12T15:23:11.070Z,76.72
2019-01-12T15:25:40.397Z,76.67
2019-01-12T15:28:09.738Z,77.08
2019-01-12T15:30:39.009Z,77.45
2019-01-12T15:33:12.695Z,77.96
2019-01-12T15:35:44.128Z,78.20
2019-01-12T15:38:13.424Z,78.33
2019-01-12T15:40:42.720Z,78.30
2019-01-12T15:43:13.238Z,78.25
2019-01-12T15:45:44.315Z,78.53
2019-01-12T15:48:13.647Z,78.78
2019-01-12T15:50:43.105Z,78.69
2019-01-12T15:53:12.401Z,78.90
2019-01-12T15:55:41.740Z,78.97
2019-01-12T15:58:16.164Z,78.75
2019-01-12T16:00:42.386Z,78.71
2019-01-12T16:03:12.008Z,78.49
2019-01-12T16:05:41.334Z,78.69
2019-01-12T16:08:10.617Z,78.77
2019-01-12T16:10:39.927Z,78.91
2019-01-12T16:13:09.250Z,78.68
2019-01-12T16:15:38.506Z,78.97
2019-01-12T16:18:07.796Z,78.88
2019-01-12T16:20:41.361Z,79.04
2019-01-12T16:23:12.097Z,79.54
2019-01-12T16:25:41.566Z,79.70
2019-01-12T16:28:11.068Z,80.15
2019-01-12T16:30:40.331Z,80.29
2019-01-12T16:33:09.649Z,80.49
2019-01-12T16:35:39.468Z,80.75
2019-01-12T16:38:09.268Z,80.66
2019-01-12T16:40:38.555Z,80.84
2019-01-12T16:43:07.952Z,80.67
2019-01-12T16:45:37.936Z,80.84
2019-01-12T16:48:07.275Z,80.87
2019-01-12T16:50:36.879Z,81.10
2019-01-12T16:53:06.267Z,80.93
2019-01-12T16:55:35.625Z,80.89
2019-01-12T16:58:06.068Z,81.23
2019-01-12T17:00:35.348Z,81.12
2019-01-12T17:03:05.055Z,81.48
2019-01-12T17:05:34.364Z,81.46
2019-01-12T17:08:03.813Z,81.43
2019-01-12T17:10:33.101Z,81.75
2019-01-12T17:13:02.362Z,81.71
2019-01-12T17:15:34.799Z,81.69
2019-01-12T17:18:02.986Z,81.90
2019-01-12T17:20:32.771Z,81.92
2019-01-12T17:23:03.796Z,82.24
2019-01-12T17:25:33.300Z,82.17
2019-01-12T17:28:02.907Z,82.07
2019-01-12T17:30:32.584Z,82.48
2019-01-12T17:33:02.086Z,82.81
2019-01-12T17:35:31.369Z,82.72
2019-01-12T17:38:01.305Z,82.45
2019-01-12T17:40:30.858Z,82.50
2019-01-12T17:43:00.283Z,82.32
2019-01-12T17:45:31.585Z,82.61
2019-01-12T17:48:00.866Z,82.63
2019-01-12T17:50:30.887Z,82.79
2019-01-12T17:53:00.544Z,82.65
2019-01-12T17:55:29.949Z,82.53
2019-01-12T17:57:59.380Z,82.52
2019-01-12T18:00:49.330Z,82.25
2019-01-12T18:03:18.840Z,82.63
2019-01-12T18:05:48.246Z,82.24
2019-01-12T18:08:17.782Z,82.23
2019-01-12T18:10:47.629Z,82.45
2019-01-12T18:13:17.019Z,82.18
2019-01-12T18:15:46.612Z,81.76
2019-01-12T18:18:16.149Z,81.60
2019-01-12T18:20:45.664Z,81.70
2019-01-12T18:23:15.355Z,81.55
2019-01-12T18:25:45.431Z,81.26
2019-01-12T18:28:14.895Z,81.39
2019-01-12T18:30:44.544Z,81.49
2019-01-12T18:33:14.095Z,81.54
2019-01-12T18:35:43.947Z,81.35
2019-01-12T18:38:13.339Z,81.18
2019-01-12T18:40:42.608Z,81.19
2019-01-12T18:43:12.002Z,81.05
2019-01-12T18:45:42.786Z,81.13
2019-01-12T18:48:12.094Z,80.97
2019-01-12T18:50:41.349Z,80.62
2019-01-12T18:53:10.672Z,80.29
2019-01-12T18:55:40.053Z,80.60
2019-01-12T18:58:09.316Z,80.55
2019-01-12T19:00:38.602Z,80.08
2019-01-12T19:03:07.945Z,80.66
2019-01-12T19:05:37.561Z,80.47
2019-01-12T19:08:06.872Z,80.16
2019-01-12T19:10:36.260Z,80.30
2019-01-12T19:13:05.881Z,80.18
2019-01-12T19:15:36.613Z,79.83
2019-01-12T19:18:06.216Z,79.88
2019-01-12T19:20:35.634Z,80.34
2019-01-12T19:23:05.211Z,80.18
2019-01-12T19:25:35.945Z,80.44
2019-01-12T19:28:05.526Z,80.46
2019-01-12T19:30:35.157Z,80.45
2019-01-12T19:33:04.530Z,80.79
2019-01-12T19:35:33.819Z,80.29
2019-01-12T19:38:03.139Z,80.62
2019-01-12T19:40:33.927Z,80.45
2019-01-12T19:43:03.281Z,80.13
2019-01-12T19:45:32.578Z,80.25
2019-01-12T19:48:01.843Z,80.39
2019-01-12T19:50:31.191Z,80.26
2019-01-12T19:53:00.919Z,80.64
2019-01-12T19:55:32.002Z,80.78
2019-01-12T19:58:02.195Z,80.76
2019-01-12T20:00:33.419Z,80.52
2019-01-12T20:03:03.577Z,81.38
2019-01-12T20:05:33.148Z,81.73
2019-01-12T20:08:02.483Z,82.13
2019-01-12T20:10:31.826Z,82.19
2019-01-12T20:13:01.168Z,82.55
2019-01-12T20:15:31.786Z,82.43
2019-01-12T20:18:02.687Z,82.23
2019-01-12T20:23:42.316Z,82.41
2019-01-12T20:26:12.057Z,82.87
2019-01-12T20:28:41.397Z,82.78
2019-01-12T20:31:49.596Z,82.51
2019-01-12T20:34:45.475Z,82.52
2019-01-12T20:37:57.759Z,82.62
2019-01-12T20:40:40.335Z,82.74
2019-01-12T20:43:36.211Z,82.54
2019-01-12T20:46:36.674Z,83.12
2019-01-12T20:49:46.444Z,83.28
2019-01-12T20:52:31.544Z,82.48
2019-01-12T20:55:18.745Z,82.54
2019-01-12T20:58:00.486Z,82.64
2019-01-12T21:01:24.246Z,82.79
2019-01-12T21:04:31.630Z,82.69
2019-01-12T21:07:37.358Z,82.59
2019-01-12T21:10:43.240Z,82.50
2019-01-12T21:14:08.907Z,82.52
2019-01-12T21:19:13.727Z,81.99
2019-01-12T21:21:43.216Z,81.98
2019-01-12T21:24:12.489Z,81.88
2019-01-12T21:26:41.821Z,81.85
2019-01-12T21:29:13.244Z,81.43
2019-01-12T21:31:42.596Z,81.44
2019-01-12T21:34:11.915Z,81.71
2019-01-12T21:36:41.207Z,81.48
2019-01-12T21:39:10.717Z,81.45
2019-01-12T21:41:40.138Z,81.08
2019-01-12T21:44:09.443Z,81.01
2019-01-12T21:46:41.025Z,81.10
2019-01-12T21:49:10.473Z,81.15
2019-01-12T21:51:39.751Z,81.09
2019-01-12T21:54:09.017Z,81.14
2019-01-12T21:56:38.321Z,81.03
2019-01-12T21:59:07.593Z,80.88
2019-01-12T22:01:46.438Z,80.64
2019-01-12T22:04:15.826Z,80.66
2019-01-12T22:06:45.638Z,80.40
2019-01-12T22:09:16.373Z,80.44
2019-01-12T22:11:45.691Z,80.07
2019-01-12T22:14:15.005Z,80.25
2019-01-12T22:16:44.312Z,80.02
2019-01-12T22:19:14.373Z,79.88
2019-01-12T22:21:43.667Z,79.82
2019-01-12T22:24:58.627Z,79.87
2019-01-12T22:27:26.417Z,79.92
2019-01-12T22:29:57.105Z,79.90
2019-01-12T22:32:26.464Z,80.05
2019-01-12T22:34:55.785Z,79.50
2019-01-12T22:37:25.066Z,79.77
2019-01-12T22:39:55.017Z,79.67
2019-01-12T22:42:24.285Z,79.64
2019-01-12T22:44:53.581Z,79.44
2019-01-12T22:47:23.889Z,79.42
2019-01-12T22:49:54.781Z,79.54
2019-01-12T22:52:26.129Z,79.23
2019-01-12T22:54:57.349Z,79.52
2019-01-12T22:57:29.095Z,79.56
2019-01-12T22:59:58.964Z,79.59
2019-01-12T23:02:28.948Z,79.74
2019-01-12T23:04:58.439Z,79.96
2019-01-12T23:07:27.971Z,79.95
2019-01-12T23:09:58.588Z,80.24
2019-01-12T23:12:28.337Z,80.17
2019-01-12T23:14:57.770Z,80.22
2019-01-12T23:17:27.576Z,80.22
2019-01-12T23:19:58.279Z,80.40
2019-01-12T23:22:29.165Z,80.80
2019-01-12T23:24:59.721Z,80.72
2019-01-12T23:27:29.032Z,80.80
2019-01-12T23:30:04.246Z,80.66
2019-01-12T23:32:29.525Z,80.58
2019-01-12T23:35:00.137Z,80.73
2019-01-12T23:37:29.526Z,80.56
2019-01-12T23:39:58.916Z,80.59
2019-01-12T23:42:29.695Z,80.69
2019-01-12T23:45:01.004Z,80.58
2019-01-12T23:47:30.512Z,80.42
2019-01-12T23:50:00.443Z,80.63
2019-01-12T23:52:30.771Z,80.47
2019-01-12T23:55:00.052Z,80.25
2019-01-12T23:57:29.378Z,80.01
2019-01-12T23:59:58.691Z,79.99
